Terminal Aerodrome Forecast
Issued by NWS

Home | Current Version | Previous Version | Text Only | Print | Product List | Glossary On
Versions: 1 2 3 4 5 6 7 8 9 10 11
444
FTUS45 KREV 211124
TAFMMH
TAF
KMMH 211124Z 2112/2212 30007KT P6SM BKN050 BKN110
     FM211500 30007KT P6SM VCSH SCT040 BKN080
     FM211700 06007KT P6SM -RA BKN035 OVC060
     FM212200 10008KT P6SM -RA BKN035 OVC050
     FM220200 09008KT 5SM -RA BKN030 OVC050
     FM220500 VRB04KT P6SM VCSH SCT035 BKN060
     FM221000 VRB03KT P6SM SCT040 BKN090=

USA.gov is the U.S. government's official web portal to all federal, state and local government web resources and services.